Time;durP1;ratioP1;P1;durP2;ratioP2;P2;SDS_P1;SDS_P2;PMS_P1;PMS_P2;Temp;Humidity;BMP_temperature;BMP_pressure;BME280_temperature;BME280_humidity;BME280_pressure;Samples;Min_cycle;Max_cycle;Signal;HPM_P1;HPM_P2
2022/06/09 00:00:27;;;;;;;1.15;0.60;;;11.90;99.90;;;;;;5067969;28;20608;-79
2022/06/09 00:03:01;;;;;;;1.33;0.52;;;11.90;99.90;;;;;;5070710;28;20197;-77
2022/06/09 00:05:32;;;;;;;0.98;0.57;;;12.00;99.90;;;;;;5066738;28;20235;-78
2022/06/09 00:08:07;;;;;;;1.05;0.70;;;12.10;99.90;;;;;;5070840;28;20188;-77
2022/06/09 00:10:41;;;;;;;1.20;0.60;;;12.20;99.90;;;;;;5068944;28;20196;-76
2022/06/09 00:13:12;;;;;;;1.20;0.70;;;12.30;99.90;;;;;;5072595;28;20548;-80
2022/06/09 00:15:43;;;;;;;1.38;0.68;;;12.30;99.90;;;;;;5064619;28;20535;-79
2022/06/09 00:18:14;;;;;;;2.65;0.80;;;12.50;99.90;;;;;;5063569;28;20717;-80
2022/06/09 00:20:45;;;;;;;0.93;0.60;;;12.50;99.90;;;;;;5069118;28;20207;-77
2022/06/09 00:23:17;;;;;;;2.03;0.70;;;12.60;99.90;;;;;;5070495;28;20676;-78
2022/06/09 00:25:48;;;;;;;0.80;0.70;;;12.60;99.90;;;;;;5071172;28;20262;-79
2022/06/09 00:28:20;;;;;;;1.90;0.90;;;12.70;99.90;;;;;;5070616;28;20285;-79
2022/06/09 00:30:50;;;;;;;1.83;0.80;;;12.90;99.90;;;;;;5060538;28;20296;-78
2022/06/09 00:33:21;;;;;;;1.65;0.70;;;12.90;99.90;;;;;;5066195;28;20197;-77
2022/06/09 00:35:52;;;;;;;1.27;0.90;;;13.00;99.90;;;;;;5071200;28;20196;-79
2022/06/09 00:38:24;;;;;;;3.70;0.93;;;13.20;99.90;;;;;;5068809;28;20213;-79
2022/06/09 00:40:59;;;;;;;1.60;1.08;;;13.30;99.90;;;;;;5070584;28;20233;-79
2022/06/09 00:43:30;;;;;;;1.65;0.70;;;13.30;99.90;;;;;;5069848;28;20208;-78
2022/06/09 00:46:12;;;;;;;1.92;0.93;;;13.50;99.90;;;;;;5069917;28;20197;-79
2022/06/09 00:48:47;;;;;;;0.80;0.57;;;13.70;99.90;;;;;;5068117;28;20200;-79
2022/06/09 00:51:37;;;;;;;0.93;0.65;;;13.80;99.90;;;;;;5067635;28;20652;-79
2022/06/09 00:54:15;;;;;;;1.80;0.70;;;13.90;99.90;;;;;;5065545;28;20679;-76
2022/06/09 00:56:49;;;;;;;1.73;0.57;;;14.00;99.90;;;;;;5068878;28;20228;-78
2022/06/09 00:59:23;;;;;;;2.03;0.30;;;14.00;99.90;;;;;;5069054;28;20294;-76
2022/06/09 01:01:54;;;;;;;1.38;0.63;;;14.10;99.90;;;;;;5070146;28;20232;-77
2022/06/09 01:04:27;;;;;;;1.15;0.60;;;14.30;99.90;;;;;;5064338;28;20236;-80
2022/06/09 01:06:59;;;;;;;0.22;0.22;;;14.40;99.90;;;;;;5071022;28;20314;-81
2022/06/09 01:09:33;;;;;;;0.70;0.32;;;14.40;99.90;;;;;;5068133;28;20492;-76
2022/06/09 01:12:04;;;;;;;0.55;0.20;;;14.40;99.90;;;;;;5068494;28;20699;-78
2022/06/09 01:14:36;;;;;;;3.22;0.40;;;14.50;99.90;;;;;;5070007;28;20204;-76
2022/06/09 01:17:15;;;;;;;2.30;0.30;;;14.60;99.90;;;;;;5069376;28;20209;-79
2022/06/09 01:20:05;;;;;;;0.40;0.30;;;14.60;99.90;;;;;;5069760;28;20206;-78
2022/06/09 01:23:03;;;;;;;0.20;0.20;;;14.80;99.90;;;;;;5069950;28;20240;-78
2022/06/09 01:26:20;;;;;;;0.60;0.40;;;14.80;99.90;;;;;;5066160;28;20203;-78
2022/06/09 01:29:09;;;;;;;0.20;0.20;;;14.90;99.90;;;;;;5071731;28;20200;-76
2022/06/09 01:31:48;;;;;;;1.15;0.25;;;14.80;99.90;;;;;;5072747;28;20189;-79
2022/06/09 01:34:26;;;;;;;0.88;0.35;;;14.80;99.90;;;;;;5066460;28;20181;-77
2022/06/09 01:37:04;;;;;;;11.23;5.93;;;14.90;99.90;;;;;;5067350;28;20225;-80
2022/06/09 01:39:48;;;;;;;10.00;4.80;;;14.90;99.90;;;;;;5065400;28;20193;-77
2022/06/09 01:42:25;;;;;;;0.60;0.60;;;14.90;99.90;;;;;;5070037;28;20192;-80
2022/06/09 01:44:59;;;;;;;2.40;0.73;;;15.00;99.90;;;;;;5064807;28;20255;-75
2022/06/09 01:47:43;;;;;;;1.65;0.47;;;15.10;99.90;;;;;;5064632;28;20203;-78
2022/06/09 01:50:19;;;;;;;0.77;0.30;;;15.10;99.90;;;;;;5064332;28;20197;-76
2022/06/09 01:52:50;;;;;;;0.20;0.20;;;15.10;99.90;;;;;;5063199;28;20702;-76
2022/06/09 01:55:24;;;;;;;0.57;0.30;;;15.10;99.90;;;;;;5067777;28;20202;-77
2022/06/09 01:57:59;;;;;;;3.47;0.30;;;15.10;99.90;;;;;;5071273;28;20228;-77
2022/06/09 02:00:32;;;;;;;1.85;0.90;;;15.20;99.90;;;;;;5070699;28;20254;-77
2022/06/09 02:03:09;;;;;;;1.55;0.30;;;15.20;99.90;;;;;;5071507;28;20197;-75
2022/06/09 02:05:43;;;;;;;0.10;0.10;;;15.40;99.90;;;;;;5072031;28;20228;-76
2022/06/09 02:08:18;;;;;;;0.10;0.10;;;15.40;99.90;;;;;;5067868;28;20284;-78
2022/06/09 02:10:54;;;;;;;0.30;0.20;;;15.40;99.90;;;;;;5068796;28;20676;-76
2022/06/09 02:13:27;;;;;;;0.30;0.30;;;15.50;99.90;;;;;;5067007;28;20196;-76
2022/06/09 02:16:04;;;;;;;0.70;0.30;;;15.60;99.90;;;;;;5061719;28;20196;-77
2022/06/09 02:18:40;;;;;;;0.63;0.20;;;15.80;99.90;;;;;;5068900;28;20300;-86
2022/06/09 02:21:15;;;;;;;15.05;8.43;;;15.80;99.90;;;;;;5062244;28;20201;-76
2022/06/09 02:23:47;;;;;;;6.82;4.07;;;15.70;99.90;;;;;;5070313;28;20192;-77
2022/06/09 02:26:18;;;;;;;5.72;3.40;;;15.80;99.90;;;;;;5066717;28;20197;-78
2022/06/09 02:28:49;;;;;;;1.95;1.42;;;15.80;99.90;;;;;;5066886;28;20193;-75
2022/06/09 02:31:20;;;;;;;0.73;0.52;;;15.90;99.90;;;;;;5068358;28;20197;-76
2022/06/09 02:33:55;;;;;;;0.90;0.70;;;15.90;99.90;;;;;;5069252;28;20189;-76
2022/06/09 02:36:26;;;;;;;1.05;0.47;;;16.00;99.90;;;;;;5072562;28;20184;-76
2022/06/09 02:38:57;;;;;;;2.35;0.70;;;16.00;99.90;;;;;;5060778;28;20308;-77
2022/06/09 02:41:27;;;;;;;1.08;0.47;;;16.00;99.90;;;;;;5070967;28;20197;-80
2022/06/09 02:43:58;;;;;;;0.47;0.43;;;16.00;99.90;;;;;;5065051;28;20204;-76
2022/06/09 02:46:28;;;;;;;0.40;0.40;;;16.00;99.90;;;;;;5063333;28;20186;-75
2022/06/09 02:49:01;;;;;;;1.50;0.50;;;16.00;99.90;;;;;;5066059;28;20573;-76
2022/06/09 02:51:34;;;;;;;1.05;0.50;;;16.00;99.90;;;;;;5066013;28;20197;-75
2022/06/09 02:54:07;;;;;;;0.43;0.38;;;16.10;99.90;;;;;;5067076;28;20242;-75
2022/06/09 02:56:37;;;;;;;0.20;0.20;;;16.10;99.90;;;;;;5070540;28;20652;-79
2022/06/09 02:59:08;;;;;;;0.32;0.20;;;16.10;99.90;;;;;;5071911;28;20687;-77
2022/06/09 03:01:40;;;;;;;2.00;0.30;;;16.10;99.90;;;;;;5068604;28;20188;-76
2022/06/09 03:04:12;;;;;;;2.38;0.43;;;16.10;99.90;;;;;;5066920;28;20229;-74
2022/06/09 03:06:43;;;;;;;1.23;0.30;;;16.20;99.90;;;;;;5045400;28;20229;-78
2022/06/09 03:09:14;;;;;;;0.40;0.20;;;16.20;99.90;;;;;;5051865;28;20205;-78
2022/06/09 03:11:44;;;;;;;1.38;0.35;;;16.40;99.90;;;;;;5049656;28;20231;-78
2022/06/09 03:14:15;;;;;;;1.52;0.30;;;16.30;99.90;;;;;;5050375;28;20197;-78
2022/06/09 03:16:46;;;;;;;1.70;0.50;;;16.30;99.90;;;;;;5052171;28;20197;-79
2022/06/09 03:19:18;;;;;;;0.70;0.20;;;16.30;99.90;;;;;;5047691;28;20254;-79
2022/06/09 03:21:49;;;;;;;0.28;0.22;;;16.20;99.90;;;;;;5051153;28;20220;-77
2022/06/09 03:24:20;;;;;;;2.10;0.40;;;16.20;99.90;;;;;;5052828;28;20712;-79
2022/06/09 03:26:51;;;;;;;0.20;0.20;;;16.10;99.90;;;;;;5050967;28;20312;-76
2022/06/09 03:29:22;;;;;;;0.57;0.40;;;16.20;99.90;;;;;;5049432;28;20214;-78
2022/06/09 03:31:53;;;;;;;0.10;0.10;;;16.10;99.90;;;;;;5051276;28;20204;-80
2022/06/09 03:34:26;;;;;;;0.10;0.10;;;16.20;99.90;;;;;;5049430;28;20201;-77
2022/06/09 03:36:56;;;;;;;1.05;0.30;;;16.10;99.90;;;;;;5050258;28;20289;-79
2022/06/09 03:39:27;;;;;;;0.47;0.20;;;16.10;99.90;;;;;;5050902;28;20699;-77
2022/06/09 03:41:58;;;;;;;0.10;0.10;;;16.10;99.90;;;;;;5052608;28;20553;-77
2022/06/09 03:44:28;;;;;;;0.28;0.28;;;16.10;99.90;;;;;;5052307;28;20255;-78
2022/06/09 03:46:59;;;;;;;0.88;0.35;;;16.20;99.90;;;;;;5041959;28;20193;-80
2022/06/09 03:49:31;;;;;;;0.20;0.20;;;16.20;99.90;;;;;;5051044;28;20657;-80
2022/06/09 03:52:02;;;;;;;0.20;0.20;;;16.30;99.90;;;;;;5048768;28;20222;-78
2022/06/09 03:54:33;;;;;;;0.40;0.20;;;16.40;99.90;;;;;;5051913;28;20209;-79
2022/06/09 03:57:04;;;;;;;1.77;0.13;;;16.30;99.90;;;;;;5044283;28;20186;-78
2022/06/09 03:59:35;;;;;;;1.00;0.45;;;16.20;99.90;;;;;;5049131;28;20578;-78
2022/06/09 04:02:05;;;;;;;3.65;0.30;;;16.20;99.90;;;;;;5047689;28;20201;-79
2022/06/09 04:04:38;;;;;;;1.55;0.20;;;16.10;99.90;;;;;;5054411;28;20239;-78
2022/06/09 04:07:09;;;;;;;0.85;0.30;;;16.10;99.90;;;;;;5070175;28;20201;-77
2022/06/09 04:09:39;;;;;;;0.70;0.20;;;16.10;99.90;;;;;;5070745;28;20205;-79
2022/06/09 04:12:10;;;;;;;0.73;0.30;;;16.10;99.90;;;;;;5072221;28;20201;-78
2022/06/09 04:14:42;;;;;;;0.17;0.15;;;16.10;99.90;;;;;;5069062;28;20599;-79
2022/06/09 04:17:14;;;;;;;0.93;0.40;;;16.00;99.90;;;;;;5070494;28;20213;-77
2022/06/09 04:19:46;;;;;;;1.15;0.30;;;16.00;99.90;;;;;;5070605;28;20220;-78
2022/06/09 04:22:17;;;;;;;1.60;0.30;;;16.00;99.90;;;;;;5069103;28;20591;-77
2022/06/09 04:24:47;;;;;;;0.45;0.20;;;16.10;99.90;;;;;;5071145;28;20668;-79
2022/06/09 04:27:18;;;;;;;0.13;0.13;;;16.10;99.90;;;;;;5067761;28;20182;-78
2022/06/09 04:29:49;;;;;;;0.20;0.20;;;16.10;99.90;;;;;;5068667;28;20652;-79
2022/06/09 04:32:19;;;;;;;0.43;0.15;;;16.00;99.90;;;;;;5067949;28;20682;-80
2022/06/09 04:34:52;;;;;;;0.20;0.20;;;16.00;99.90;;;;;;5070072;28;20197;-78
2022/06/09 04:37:59;;;;;;;0.47;0.32;;;16.00;99.90;;;;;;5066388;28;20201;-79
2022/06/09 04:40:14;;;;;;;0.40;0.20;;;16.00;99.90;;;;;;5068463;28;20663;-79
2022/06/09 04:42:45;;;;;;;0.20;0.20;;;16.00;99.90;;;;;;5071541;28;20200;-78
2022/06/09 04:45:16;;;;;;;0.52;0.30;;;16.00;99.90;;;;;;5069525;28;20197;-79
2022/06/09 04:47:46;;;;;;;0.20;0.20;;;16.00;99.90;;;;;;5067575;28;20231;-78
2022/06/09 04:50:19;;;;;;;0.63;0.20;;;16.00;99.90;;;;;;5065708;28;20215;-77
2022/06/09 04:52:50;;;;;;;0.25;0.20;;;16.00;99.90;;;;;;5069459;28;20223;-81
2022/06/09 04:55:21;;;;;;;0.30;0.22;;;16.00;99.90;;;;;;5071509;28;20755;-79
2022/06/09 04:57:51;;;;;;;0.82;0.30;;;15.90;99.90;;;;;;5071005;28;20200;-80
2022/06/09 05:00:22;;;;;;;0.28;0.20;;;15.90;99.90;;;;;;5073474;28;20200;-78
2022/06/09 05:02:53;;;;;;;0.40;0.20;;;15.90;99.90;;;;;;5071075;28;20235;-80
2022/06/09 05:05:28;;;;;;;1.05;0.20;;;15.90;99.90;;;;;;5071660;28;20228;-79
2022/06/09 05:07:59;;;;;;;0.30;0.20;;;15.80;99.90;;;;;;5071948;28;20209;-81
2022/06/09 05:10:30;;;;;;;0.30;0.20;;;15.80;99.90;;;;;;5075034;28;20790;-80
2022/06/09 05:13:01;;;;;;;1.23;0.57;;;15.70;99.90;;;;;;5075382;28;20193;-80
2022/06/09 05:15:31;;;;;;;0.20;0.20;;;15.70;99.90;;;;;;5076186;28;20193;-80
2022/06/09 05:18:02;;;;;;;0.32;0.30;;;15.70;99.90;;;;;;5076102;28;20208;-81
2022/06/09 05:20:35;;;;;;;0.40;0.30;;;15.60;99.90;;;;;;5076226;28;20204;-79
2022/06/09 05:23:05;;;;;;;0.93;0.20;;;15.60;99.90;;;;;;5076244;28;20193;-77
2022/06/09 05:25:36;;;;;;;0.52;0.50;;;15.60;99.90;;;;;;5076098;28;20189;-79
2022/06/09 05:28:07;;;;;;;0.98;0.30;;;15.60;99.90;;;;;;5076164;28;20212;-79
2022/06/09 05:30:38;;;;;;;0.40;0.40;;;15.60;99.90;;;;;;5074031;28;20200;-78
2022/06/09 05:33:09;;;;;;;0.40;0.20;;;15.60;99.90;;;;;;5076050;28;20192;-79
2022/06/09 05:35:41;;;;;;;0.20;0.20;;;15.60;99.90;;;;;;5075694;28;20200;-77
2022/06/09 05:46:36;;;;;;;0.38;0.20;;;15.40;99.90;;;;;;5076035;28;20207;-78
2022/06/09 05:49:08;;;;;;;1.80;0.30;;;15.40;99.90;;;;;;5070714;28;20203;-77
2022/06/09 05:51:41;;;;;;;0.20;0.20;;;15.30;99.90;;;;;;5075368;28;20225;-79
2022/06/09 05:54:11;;;;;;;0.25;0.25;;;15.20;99.90;;;;;;5075502;28;20197;-79
2022/06/09 05:56:42;;;;;;;0.65;0.20;;;15.20;99.90;;;;;;5075588;28;20552;-79
2022/06/09 05:59:13;;;;;;;1.10;0.30;;;15.10;99.90;;;;;;5075182;28;20588;-78
2022/06/09 06:01:44;;;;;;;0.32;0.22;;;15.10;99.90;;;;;;5075569;28;20640;-78
2022/06/09 06:04:14;;;;;;;0.20;0.20;;;15.00;99.90;;;;;;5075299;28;20692;-80
2022/06/09 06:06:47;;;;;;;0.30;0.20;;;15.00;99.90;;;;;;5072480;28;20271;-78
2022/06/09 06:09:19;;;;;;;0.20;0.20;;;14.90;99.90;;;;;;5073986;28;20213;-78
2022/06/09 06:11:50;;;;;;;0.30;0.30;;;14.80;99.90;;;;;;5074997;28;20185;-78
2022/06/09 06:14:22;;;;;;;0.30;0.30;;;14.80;99.90;;;;;;5075272;28;20640;-77
2022/06/09 06:16:53;;;;;;;0.30;0.30;;;14.70;99.90;;;;;;5075650;28;20550;-80
2022/06/09 06:19:24;;;;;;;0.38;0.35;;;14.70;99.90;;;;;;5075161;28;20224;-80
2022/06/09 06:21:57;;;;;;;0.20;0.20;;;14.60;99.90;;;;;;5075095;28;20236;-80
2022/06/09 06:24:28;;;;;;;0.32;0.32;;;14.60;99.90;;;;;;5075090;28;20189;-78
2022/06/09 06:26:58;;;;;;;2.28;0.28;;;14.50;99.90;;;;;;5074866;28;20189;-79
2022/06/09 06:29:30;;;;;;;2.28;0.30;;;14.50;99.90;;;;;;5071193;28;20609;-79
2022/06/09 06:32:00;;;;;;;0.47;0.25;;;14.40;99.90;;;;;;5074981;28;20189;-80
2022/06/09 06:34:31;;;;;;;0.30;0.30;;;14.40;99.90;;;;;;5074526;28;20582;-79
2022/06/09 06:37:04;;;;;;;0.80;0.30;;;14.30;99.90;;;;;;5074907;28;20185;-79
2022/06/09 06:39:34;;;;;;;0.40;0.40;;;14.20;99.90;;;;;;5074844;28;20590;-78
2022/06/09 06:42:05;;;;;;;0.40;0.40;;;14.10;99.90;;;;;;5074388;28;20193;-78
2022/06/09 06:44:36;;;;;;;0.30;0.30;;;14.10;99.90;;;;;;5074646;28;20193;-81
2022/06/09 06:47:06;;;;;;;0.30;0.30;;;14.00;99.90;;;;;;5074468;28;20193;-78
2022/06/09 06:49:37;;;;;;;0.55;0.38;;;13.90;99.90;;;;;;5074472;28;20185;-78
2022/06/09 06:52:10;;;;;;;1.83;0.30;;;13.80;99.90;;;;;;5071735;28;20692;-79
2022/06/09 06:54:41;;;;;;;0.73;0.30;;;13.80;99.90;;;;;;5071596;28;20192;-80
2022/06/09 06:57:11;;;;;;;1.10;0.20;;;13.70;99.90;;;;;;5071783;28;20200;-79
2022/06/09 06:59:42;;;;;;;0.28;0.28;;;13.60;99.90;;;;;;5070730;28;20220;-80
2022/06/09 07:02:14;;;;;;;0.35;0.30;;;13.60;99.90;;;;;;5064258;28;20272;-85
2022/06/09 07:04:44;;;;;;;0.93;0.30;;;13.50;99.90;;;;;;5062319;28;20801;-82
2022/06/09 07:07:17;;;;;;;0.95;0.40;;;13.50;99.90;;;;;;5056330;28;20200;-79
2022/06/09 07:09:48;;;;;;;0.47;0.40;;;13.40;99.90;;;;;;5073042;28;20196;-79
2022/06/09 07:12:18;;;;;;;0.57;0.40;;;13.30;99.90;;;;;;5072568;28;20217;-82
2022/06/09 07:14:49;;;;;;;3.15;0.40;;;13.30;99.90;;;;;;5073204;28;20185;-80
2022/06/09 07:17:20;;;;;;;0.40;0.40;;;13.20;99.90;;;;;;5070776;28;20192;-80
2022/06/09 07:19:51;;;;;;;1.67;0.50;;;13.20;99.90;;;;;;5058510;28;20213;-79
2022/06/09 07:22:23;;;;;;;1.65;0.40;;;13.20;99.90;;;;;;5069166;28;20203;-79
2022/06/09 07:24:56;;;;;;;0.40;0.30;;;13.10;99.90;;;;;;5072012;28;20371;-78
2022/06/09 07:27:26;;;;;;;0.30;0.30;;;13.10;99.90;;;;;;5071455;28;20192;-80
2022/06/09 07:29:57;;;;;;;0.50;0.40;;;13.10;99.90;;;;;;5069227;28;20259;-82
2022/06/09 07:32:28;;;;;;;0.50;0.50;;;13.00;99.90;;;;;;5071386;28;20219;-82
2022/06/09 07:34:58;;;;;;;0.88;0.40;;;12.90;99.90;;;;;;5073123;28;20200;-85
2022/06/09 07:37:31;;;;;;;0.40;0.40;;;12.90;99.90;;;;;;5072483;28;20208;-82
2022/06/09 07:40:02;;;;;;;0.60;0.43;;;12.90;99.90;;;;;;5072480;28;20213;-79
2022/06/09 07:42:33;;;;;;;0.45;0.40;;;12.80;99.90;;;;;;5081779;28;20201;-80
2022/06/09 07:45:03;;;;;;;0.68;0.60;;;12.80;99.90;;;;;;5093219;28;20555;-80
2022/06/09 07:47:34;;;;;;;0.43;0.43;;;12.80;99.90;;;;;;5076351;28;20216;-84
2022/06/09 07:50:05;;;;;;;0.75;0.50;;;12.80;99.90;;;;;;5057527;28;20692;-85
2022/06/09 07:52:39;;;;;;;1.38;0.50;;;12.70;99.90;;;;;;5072674;28;20227;-82
2022/06/09 07:55:11;;;;;;;0.40;0.40;;;12.70;99.90;;;;;;5072755;28;20192;-80
2022/06/09 07:57:42;;;;;;;0.85;0.50;;;12.60;99.90;;;;;;5072492;28;20193;-83
2022/06/09 08:00:14;;;;;;;1.70;0.60;;;12.60;99.90;;;;;;5072721;28;20217;-82
2022/06/09 08:02:45;;;;;;;1.35;0.80;;;12.60;99.90;;;;;;5070800;28;20732;-80
2022/06/09 08:05:16;;;;;;;0.98;0.70;;;12.60;99.90;;;;;;5069239;28;20263;-80
2022/06/09 08:07:49;;;;;;;1.10;0.70;;;12.50;99.90;;;;;;5061864;28;20216;-83
2022/06/09 08:10:21;;;;;;;1.30;0.77;;;12.50;99.90;;;;;;5070359;28;20197;-82
2022/06/09 08:12:53;;;;;;;1.42;0.55;;;12.50;99.90;;;;;;5069781;28;20197;-82
2022/06/09 08:15:24;;;;;;;0.73;0.60;;;12.40;99.90;;;;;;5068010;28;20587;-85
2022/06/09 08:17:55;;;;;;;1.15;0.70;;;12.50;99.90;;;;;;5069057;28;20228;-83
2022/06/09 08:20:27;;;;;;;0.57;0.55;;;12.40;99.90;;;;;;5067223;28;20212;-86
2022/06/09 08:23:06;;;;;;;0.88;0.60;;;12.40;99.90;;;;;;5072388;28;20212;-82
2022/06/09 08:25:37;;;;;;;1.02;0.60;;;12.40;99.90;;;;;;5072353;28;20193;-85
2022/06/09 08:28:08;;;;;;;1.75;0.60;;;12.30;99.90;;;;;;5070444;28;20564;-83
2022/06/09 08:30:40;;;;;;;0.68;0.60;;;12.30;99.90;;;;;;5069223;28;20203;-86
2022/06/09 08:33:10;;;;;;;5.68;0.70;;;12.30;99.90;;;;;;5068904;28;20189;-84
2022/06/09 08:35:41;;;;;;;1.50;0.55;;;12.30;99.90;;;;;;5072902;28;20196;-83
2022/06/09 08:38:14;;;;;;;0.50;0.50;;;12.30;99.90;;;;;;5073014;28;20199;-83
2022/06/09 08:40:53;;;;;;;1.17;0.50;;;12.40;99.90;;;;;;5072683;28;20610;-83
2022/06/09 08:43:32;;;;;;;1.13;0.50;;;12.30;99.90;;;;;;5070729;28;20201;-84
2022/06/09 08:46:09;;;;;;;0.63;0.50;;;12.40;99.90;;;;;;5073425;28;20195;-79
2022/06/09 08:48:43;;;;;;;0.50;0.40;;;12.40;99.90;;;;;;5070765;28;20196;-82
2022/06/09 08:51:17;;;;;;;0.40;0.40;;;12.40;99.90;;;;;;5070555;28;20205;-83
2022/06/09 08:53:55;;;;;;;0.75;0.60;;;12.50;99.90;;;;;;5071989;28;20643;-79
2022/06/09 08:56:29;;;;;;;0.45;0.40;;;12.50;99.90;;;;;;5074629;28;20200;-82
2022/06/09 08:59:04;;;;;;;0.50;0.45;;;12.50;99.90;;;;;;5072553;28;20197;-79
2022/06/09 09:01:41;;;;;;;2.60;0.50;;;12.50;99.90;;;;;;5070666;28;21791;-82
2022/06/09 09:04:20;;;;;;;0.40;0.40;;;12.40;99.90;;;;;;5067152;28;20232;-80
2022/06/09 09:06:58;;;;;;;1.08;0.70;;;12.40;99.90;;;;;;5068917;28;20193;-79
2022/06/09 09:09:32;;;;;;;1.90;0.85;;;12.30;99.90;;;;;;5064394;28;20205;-80
2022/06/09 09:12:10;;;;;;;1.00;0.50;;;12.30;99.90;;;;;;5065628;28;20655;-79
2022/06/09 09:14:49;;;;;;;1.27;0.70;;;12.20;99.90;;;;;;5074542;28;20193;-80
2022/06/09 09:17:27;;;;;;;0.50;0.50;;;12.20;99.90;;;;;;5072159;28;20200;-80
2022/06/09 09:20:04;;;;;;;0.82;0.60;;;12.20;99.90;;;;;;5071576;28;20679;-79
2022/06/09 09:22:46;;;;;;;0.75;0.70;;;12.10;99.90;;;;;;5075269;28;20194;-82
2022/06/09 09:25:27;;;;;;;0.98;0.70;;;12.10;99.90;;;;;;5067150;28;20197;-79
2022/06/09 09:28:02;;;;;;;1.33;0.90;;;12.00;99.90;;;;;;5071644;28;20201;-80
2022/06/09 09:30:39;;;;;;;0.93;0.70;;;12.00;99.90;;;;;;5071318;28;20200;-81
2022/06/09 09:33:15;;;;;;;0.77;0.73;;;11.90;99.90;;;;;;5074843;28;20192;-80
2022/06/09 09:35:46;;;;;;;1.45;0.68;;;11.90;99.90;;;;;;5074174;28;20200;-81
2022/06/09 09:38:20;;;;;;;0.93;0.75;;;11.90;99.90;;;;;;5074419;28;20197;-81
2022/06/09 09:41:00;;;;;;;1.30;0.80;;;11.80;99.90;;;;;;5071989;28;20217;-80
2022/06/09 09:43:38;;;;;;;0.60;0.60;;;11.80;99.90;;;;;;5065124;28;20215;-81
2022/06/09 09:46:26;;;;;;;0.50;0.50;;;11.80;99.90;;;;;;5074169;28;20204;-80
2022/06/09 09:49:01;;;;;;;0.90;0.70;;;11.80;99.90;;;;;;5073357;28;20236;-79
2022/06/09 09:51:37;;;;;;;0.80;0.68;;;11.70;99.90;;;;;;5071376;28;20227;-80
2022/06/09 09:54:19;;;;;;;1.77;0.80;;;11.70;99.90;;;;;;5066770;28;20200;-78
2022/06/09 09:57:03;;;;;;;0.60;0.60;;;11.70;99.90;;;;;;5074667;28;20246;-82
2022/06/09 09:59:43;;;;;;;1.00;0.90;;;11.70;99.90;;;;;;5072641;28;20227;-80
2022/06/09 10:08:39;;;;;;;1.02;0.90;;;11.60;99.90;;;;;;5073791;28;20208;-80
2022/06/09 10:14:06;;;;;;;1.05;0.90;;;11.60;99.90;;;;;;5071768;28;20327;-78
2022/06/09 10:16:37;;;;;;;35.75;20.17;;;11.60;99.90;;;;;;5071612;28;20197;-83
2022/06/09 10:19:08;;;;;;;58.00;33.65;;;11.60;99.90;;;;;;5067744;28;20193;-81
2022/06/09 10:21:54;;;;;;;69.70;36.42;;;11.60;99.90;;;;;;5073533;28;20663;-80
2022/06/09 10:24:31;;;;;;;11.95;6.18;;;11.60;99.90;;;;;;5071628;28;20193;-79
2022/06/09 10:27:02;;;;;;;6.50;3.60;;;11.50;99.90;;;;;;5075006;28;20579;-81
2022/06/09 10:29:43;;;;;;;5.88;3.00;;;11.50;99.90;;;;;;5066605;28;20546;-79
2022/06/09 10:32:22;;;;;;;16.52;8.82;;;11.50;99.90;;;;;;5062824;28;20231;-81
2022/06/09 10:35:00;;;;;;;4.38;2.97;;;11.50;99.90;;;;;;5071333;28;20196;-76
2022/06/09 10:37:41;;;;;;;3.10;2.10;;;11.50;99.90;;;;;;5070072;28;20249;-81
2022/06/09 10:40:20;;;;;;;2.33;1.63;;;11.50;99.90;;;;;;5062107;28;20735;-78
2022/06/09 10:42:57;;;;;;;3.30;1.40;;;11.40;99.90;;;;;;5060138;28;20692;-86
2022/06/09 10:45:37;;;;;;;2.40;1.20;;;11.40;99.90;;;;;;5073349;28;20197;-79
2022/06/09 10:56:58;;;;;;;2.55;0.65;;;11.50;99.90;;;;;;5024921;28;20200;-78
2022/06/09 10:59:35;;;;;;;0.93;0.70;;;11.50;99.90;;;;;;5068052;28;20224;-79
2022/06/09 11:02:14;;;;;;;0.85;0.70;;;11.40;99.90;;;;;;5072417;28;20273;-78
2022/06/09 11:04:45;;;;;;;1.00;0.60;;;11.50;99.90;;;;;;5066886;28;20235;-80
2022/06/09 11:07:30;;;;;;;0.75;0.63;;;11.50;99.90;;;;;;5072704;28;20197;-78
2022/06/09 11:10:12;;;;;;;1.40;0.70;;;11.40;99.90;;;;;;5069637;28;20235;-80
2022/06/09 11:12:51;;;;;;;0.90;0.73;;;11.40;99.90;;;;;;5066299;28;20565;-82
2022/06/09 11:15:33;;;;;;;1.48;0.80;;;11.40;99.90;;;;;;5072677;28;20219;-80
2022/06/09 11:18:19;;;;;;;0.80;0.70;;;11.40;99.90;;;;;;5069105;28;20196;-82
2022/06/09 11:21:03;;;;;;;0.77;0.77;;;11.40;99.90;;;;;;5070149;28;20223;-79
2022/06/09 11:23:47;;;;;;;1.23;0.70;;;11.40;99.90;;;;;;5050178;28;20196;-81
2022/06/09 11:26:28;;;;;;;1.13;0.77;;;11.40;99.90;;;;;;5060665;28;20215;-81
2022/06/09 11:29:10;;;;;;;0.73;0.70;;;11.40;99.90;;;;;;5064286;28;20212;-81
2022/06/09 11:31:54;;;;;;;1.98;0.98;;;11.30;99.90;;;;;;5069646;28;20203;-78
2022/06/09 11:34:49;;;;;;;2.75;1.00;;;11.30;99.90;;;;;;5071419;28;20208;-82
2022/06/09 11:37:33;;;;;;;2.90;1.33;;;11.30;99.90;;;;;;5064215;28;20687;-80
2022/06/09 11:40:17;;;;;;;2.28;1.23;;;11.20;99.90;;;;;;5060294;28;20213;-78
2022/06/09 11:43:00;;;;;;;2.08;1.13;;;11.20;99.90;;;;;;5070206;28;20271;-81
2022/06/09 11:45:37;;;;;;;2.05;1.30;;;11.10;99.90;;;;;;5062509;28;20200;-78
2022/06/09 11:48:14;;;;;;;1.65;1.05;;;11.00;99.90;;;;;;5057826;28;20203;-80
2022/06/09 11:50:50;;;;;;;1.98;1.30;;;11.00;99.90;;;;;;5071059;28;20549;-79
2022/06/09 11:53:23;;;;;;;2.42;1.30;;;10.90;99.90;;;;;;5071530;28;20188;-78
2022/06/09 11:56:14;;;;;;;2.28;1.40;;;10.90;99.90;;;;;;5071915;28;20197;-79
2022/06/09 11:58:50;;;;;;;4.85;1.55;;;10.90;99.90;;;;;;5069991;28;20204;-79
2022/06/09 12:01:38;;;;;;;2.75;1.33;;;10.80;99.90;;;;;;5070932;28;20213;-83
2022/06/09 12:04:32;;;;;;;1.65;1.17;;;10.80;99.90;;;;;;5066486;28;20233;-79
2022/06/09 12:07:27;;;;;;;2.35;1.33;;;10.80;99.90;;;;;;5071193;28;20556;-79
2022/06/09 12:10:20;;;;;;;1.92;1.20;;;10.70;99.90;;;;;;5067291;28;20679;-80
2022/06/09 12:13:18;;;;;;;1.48;1.23;;;10.70;99.90;;;;;;5068433;28;20204;-79
2022/06/09 12:15:55;;;;;;;2.97;1.40;;;10.70;99.90;;;;;;5068688;28;20242;-80
2022/06/09 12:18:48;;;;;;;1.83;1.08;;;10.70;99.90;;;;;;5068723;28;20193;-79
2022/06/09 12:21:31;;;;;;;2.75;1.00;;;10.70;99.90;;;;;;5059414;28;20228;-79
2022/06/09 12:24:27;;;;;;;1.17;1.08;;;10.70;99.90;;;;;;5059572;28;20276;-78
2022/06/09 12:27:03;;;;;;;2.20;1.00;;;10.70;99.90;;;;;;5067187;28;20278;-79
2022/06/09 12:29:45;;;;;;;1.10;1.00;;;10.70;99.90;;;;;;5068511;28;20196;-81
2022/06/09 12:32:45;;;;;;;1.33;1.08;;;10.70;99.90;;;;;;5067511;28;20279;-80
2022/06/09 12:35:34;;;;;;;3.50;1.45;;;10.60;99.90;;;;;;5066440;28;20235;-78
2022/06/09 12:38:08;;;;;;;1.52;1.20;;;10.60;99.90;;;;;;5067463;28;20196;-79
2022/06/09 12:40:48;;;;;;;1.42;1.17;;;10.60;99.90;;;;;;5066385;28;20220;-83
2022/06/09 12:43:35;;;;;;;1.60;1.17;;;10.60;99.90;;;;;;5064357;28;20204;-78
2022/06/09 12:46:18;;;;;;;1.35;1.10;;;10.60;99.90;;;;;;5067241;28;20193;-78
2022/06/09 12:48:49;;;;;;;1.50;1.10;;;10.60;99.90;;;;;;5064400;28;20655;-79
2022/06/09 12:51:24;;;;;;;1.48;1.02;;;10.60;99.90;;;;;;5062638;28;20197;-79
2022/06/09 12:54:22;;;;;;;1.08;0.80;;;10.50;99.90;;;;;;5063089;28;20198;-78
2022/06/09 12:57:04;;;;;;;1.45;0.77;;;10.50;99.90;;;;;;5066030;28;20201;-79
2022/06/09 12:59:37;;;;;;;1.63;0.95;;;10.60;99.90;;;;;;5062654;28;20196;-79
2022/06/09 13:02:24;;;;;;;1.33;0.80;;;10.60;99.90;;;;;;5066530;28;20229;-79
2022/06/09 13:04:59;;;;;;;1.73;0.70;;;10.60;99.90;;;;;;5068215;28;20241;-78
2022/06/09 13:07:32;;;;;;;0.98;0.85;;;10.70;99.90;;;;;;5066979;28;20200;-79
2022/06/09 13:10:08;;;;;;;1.45;0.85;;;10.70;99.90;;;;;;5064193;28;20193;-77
2022/06/09 13:12:54;;;;;;;1.88;0.90;;;10.70;99.90;;;;;;5046105;28;20201;-78
2022/06/09 13:15:35;;;;;;;2.08;0.85;;;10.70;99.90;;;;;;5068998;28;20204;-78
2022/06/09 13:18:07;;;;;;;1.10;0.70;;;10.60;99.90;;;;;;5069764;28;20233;-79
2022/06/09 13:20:38;;;;;;;1.00;0.85;;;10.60;99.90;;;;;;5067876;28;20213;-79
2022/06/09 13:23:10;;;;;;;1.25;1.13;;;10.60;99.90;;;;;;5068906;28;20201;-80
2022/06/09 13:25:40;;;;;;;1.27;1.00;;;10.60;99.90;;;;;;5074377;28;20599;-79
2022/06/09 13:28:30;;;;;;;1.67;1.10;;;10.50;99.90;;;;;;5073529;28;20196;-79
2022/06/09 13:31:02;;;;;;;1.88;1.38;;;10.50;99.90;;;;;;5074358;28;20197;-81
2022/06/09 13:33:37;;;;;;;1.23;1.10;;;10.40;99.90;;;;;;5073534;28;20201;-80
2022/06/09 13:36:29;;;;;;;2.00;1.20;;;10.40;99.90;;;;;;5069395;28;20607;-78
2022/06/09 13:39:01;;;;;;;1.10;1.00;;;10.30;99.90;;;;;;5070858;28;20686;-79
2022/06/09 13:41:35;;;;;;;1.55;1.30;;;10.30;99.90;;;;;;5071534;28;20216;-80
2022/06/09 13:44:16;;;;;;;1.20;1.10;;;10.30;99.90;;;;;;5072664;28;20192;-79
2022/06/09 13:46:59;;;;;;;3.17;1.30;;;10.30;99.90;;;;;;5068746;28;20195;-79
2022/06/09 13:49:33;;;;;;;2.22;1.13;;;10.30;99.90;;;;;;5070474;28;20193;-79
2022/06/09 13:52:06;;;;;;;2.65;1.30;;;10.20;99.90;;;;;;5072332;28;20220;-78